sensor_id;sensor_type;location;lat;lon;timestamp;P1;durP1;ratioP1;P2;durP2;ratioP2
78075;SDS011;67714;52.546;13.422;2023-02-13T00:00:05;23.2;;;13.7;;
78075;SDS011;67714;52.546;13.422;2023-02-13T00:02:08;24.2;;;13.9;;
78075;SDS011;67714;52.546;13.422;2023-02-13T00:04:09;24.9;;;13.4;;
78075;SDS011;67714;52.546;13.422;2023-02-13T00:06:11;23.2;;;13.5;;
78075;SDS011;67714;52.546;13.422;2023-02-13T00:08:12;22.1;;;12.4;;
78075;SDS011;67714;52.546;13.422;2023-02-13T00:10:13;20.2;;;12.1;;
78075;SDS011;67714;52.546;13.422;2023-02-13T00:12:15;19.8;;;11.4;;
78075;SDS011;67714;52.546;13.422;2023-02-13T00:14:17;20.1;;;12.2;;
78075;SDS011;67714;52.546;13.422;2023-02-13T00:16:18;19.5;;;11.5;;
78075;SDS011;67714;52.546;13.422;2023-02-13T00:18:20;18;;;10.8;;
78075;SDS011;67714;52.546;13.422;2023-02-13T00:20:23;19.1;;;10.6;;
78075;SDS011;67714;52.546;13.422;2023-02-13T00:22:25;18.9;;;11.4;;
78075;SDS011;67714;52.546;13.422;2023-02-13T00:24:26;17.8;;;10.4;;
78075;SDS011;67714;52.546;13.422;2023-02-13T00:26:27;17.7;;;9.9;;
78075;SDS011;67714;52.546;13.422;2023-02-13T00:28:29;16.2;;;9.4;;
78075;SDS011;67714;52.546;13.422;2023-02-13T00:30:30;15.2;;;9;;
78075;SDS011;67714;52.546;13.422;2023-02-13T00:32:32;11.6;;;6.8;;
78075;SDS011;67714;52.546;13.422;2023-02-13T00:34:33;15.3;;;8;;
78075;SDS011;67714;52.546;13.422;2023-02-13T00:36:35;13.4;;;7.7;;
78075;SDS011;67714;52.546;13.422;2023-02-13T00:38:36;14.1;;;7.1;;
78075;SDS011;67714;52.546;13.422;2023-02-13T00:40:38;12.6;;;7;;
78075;SDS011;67714;52.546;13.422;2023-02-13T00:42:40;12.5;;;7;;
78075;SDS011;67714;52.546;13.422;2023-02-13T00:44:41;13.2;;;6.6;;
78075;SDS011;67714;52.546;13.422;2023-02-13T00:46:43;12.1;;;7.3;;
78075;SDS011;67714;52.546;13.422;2023-02-13T00:48:44;13.3;;;6.6;;
78075;SDS011;67714;52.546;13.422;2023-02-13T00:50:46;12;;;6.9;;
78075;SDS011;67714;52.546;13.422;2023-02-13T00:52:48;12.1;;;6.3;;
78075;SDS011;67714;52.546;13.422;2023-02-13T00:54:49;13.4;;;6.7;;
78075;SDS011;67714;52.546;13.422;2023-02-13T00:56:50;13.3;;;6.5;;
78075;SDS011;67714;52.546;13.422;2023-02-13T00:58:52;12.4;;;6.4;;
78075;SDS011;67714;52.546;13.422;2023-02-13T01:00:53;12.4;;;6.6;;
78075;SDS011;67714;52.546;13.422;2023-02-13T01:02:55;13.2;;;6.6;;
78075;SDS011;67714;52.546;13.422;2023-02-13T01:04:56;11.8;;;6;;
78075;SDS011;67714;52.546;13.422;2023-02-13T01:06:57;12.5;;;6.7;;
78075;SDS011;67714;52.546;13.422;2023-02-13T01:08:59;13;;;6.4;;
78075;SDS011;67714;52.546;13.422;2023-02-13T01:11:00;11.4;;;5.9;;
78075;SDS011;67714;52.546;13.422;2023-02-13T01:13:02;11.7;;;5.8;;
78075;SDS011;67714;52.546;13.422;2023-02-13T01:15:04;10.5;;;5.5;;
78075;SDS011;67714;52.546;13.422;2023-02-13T01:17:05;12.1;;;6;;
78075;SDS011;67714;52.546;13.422;2023-02-13T01:19:06;10.7;;;5.9;;
78075;SDS011;67714;52.546;13.422;2023-02-13T01:21:13;10.7;;;5.5;;
78075;SDS011;67714;52.546;13.422;2023-02-13T01:23:17;9.2;;;4.6;;
78075;SDS011;67714;52.546;13.422;2023-02-13T01:25:18;9.5;;;5;;
78075;SDS011;67714;52.546;13.422;2023-02-13T01:27:20;10.1;;;4.7;;
78075;SDS011;67714;52.546;13.422;2023-02-13T01:29:21;9.2;;;5.1;;
78075;SDS011;67714;52.546;13.422;2023-02-13T01:31:23;8.9;;;4.4;;
78075;SDS011;67714;52.546;13.422;2023-02-13T01:33:25;8.8;;;4.7;;
78075;SDS011;67714;52.546;13.422;2023-02-13T01:35:28;8.5;;;4.5;;
78075;SDS011;67714;52.546;13.422;2023-02-13T01:37:29;8.5;;;4.7;;
78075;SDS011;67714;52.546;13.422;2023-02-13T01:39:31;8.7;;;4.4;;
78075;SDS011;67714;52.546;13.422;2023-02-13T01:41:33;8.3;;;4.6;;
78075;SDS011;67714;52.546;13.422;2023-02-13T01:43:51;7.1;;;4.4;;
78075;SDS011;67714;52.546;13.422;2023-02-13T01:45:54;8.2;;;4.8;;
78075;SDS011;67714;52.546;13.422;2023-02-13T01:47:58;8;;;4.4;;
78075;SDS011;67714;52.546;13.422;2023-02-13T01:50:02;8.2;;;4.5;;
78075;SDS011;67714;52.546;13.422;2023-02-13T01:52:07;8.1;;;4.4;;
78075;SDS011;67714;52.546;13.422;2023-02-13T01:54:10;9.3;;;4.6;;
78075;SDS011;67714;52.546;13.422;2023-02-13T01:56:15;9;;;4.5;;
78075;SDS011;67714;52.546;13.422;2023-02-13T01:58:22;8.4;;;4.5;;
78075;SDS011;67714;52.546;13.422;2023-02-13T02:00:25;8;;;4.3;;
78075;SDS011;67714;52.546;13.422;2023-02-13T02:02:27;9.3;;;4.9;;
78075;SDS011;67714;52.546;13.422;2023-02-13T02:04:32;9;;;4.6;;
78075;SDS011;67714;52.546;13.422;2023-02-13T02:06:37;9.1;;;4.6;;
78075;SDS011;67714;52.546;13.422;2023-02-13T02:08:40;11.6;;;5.6;;
78075;SDS011;67714;52.546;13.422;2023-02-13T02:10:42;9.7;;;5;;
78075;SDS011;67714;52.546;13.422;2023-02-13T02:12:45;9.3;;;4.4;;
78075;SDS011;67714;52.546;13.422;2023-02-13T02:14:49;8.1;;;4.3;;
78075;SDS011;67714;52.546;13.422;2023-02-13T02:16:52;8.4;;;4.8;;
78075;SDS011;67714;52.546;13.422;2023-02-13T02:18:54;8.3;;;4.4;;
78075;SDS011;67714;52.546;13.422;2023-02-13T02:22:04;8.3;;;4.1;;
78075;SDS011;67714;52.546;13.422;2023-02-13T02:24:01;8.2;;;4.3;;
78075;SDS011;67714;52.546;13.422;2023-02-13T02:26:16;9.1;;;4.7;;
78075;SDS011;67714;52.546;13.422;2023-02-13T02:30:43;8.7;;;4.5;;
78075;SDS011;67714;52.546;13.422;2023-02-13T02:31:44;8.2;;;4.9;;
78075;SDS011;67714;52.546;13.422;2023-02-13T02:34:02;7.3;;;4.5;;
78075;SDS011;67714;52.546;13.422;2023-02-13T02:36:15;8.3;;;4.4;;
78075;SDS011;67714;52.546;13.422;2023-02-13T02:38:25;8.8;;;4.7;;
78075;SDS011;67714;52.546;13.422;2023-02-13T02:40:33;8;;;4.7;;
78075;SDS011;67714;52.546;13.422;2023-02-13T02:42:39;8.5;;;5.1;;
78075;SDS011;67714;52.546;13.422;2023-02-13T02:44:48;7.5;;;4.7;;
78075;SDS011;67714;52.546;13.422;2023-02-13T02:46:56;8.2;;;4.8;;
78075;SDS011;67714;52.546;13.422;2023-02-13T02:49:06;8.4;;;5.2;;
78075;SDS011;67714;52.546;13.422;2023-02-13T02:51:16;9.3;;;4.6;;
78075;SDS011;67714;52.546;13.422;2023-02-13T02:53:24;8.3;;;5.1;;
78075;SDS011;67714;52.546;13.422;2023-02-13T02:55:34;9;;;5.5;;
78075;SDS011;67714;52.546;13.422;2023-02-13T02:57:39;10.5;;;6;;
78075;SDS011;67714;52.546;13.422;2023-02-13T02:59:44;9.3;;;5.7;;
78075;SDS011;67714;52.546;13.422;2023-02-13T03:01:46;10.1;;;6.1;;
78075;SDS011;67714;52.546;13.422;2023-02-13T03:03:48;9.5;;;5.9;;
78075;SDS011;67714;52.546;13.422;2023-02-13T03:05:50;10.9;;;6.5;;
78075;SDS011;67714;52.546;13.422;2023-02-13T03:07:53;9.4;;;5.9;;
78075;SDS011;67714;52.546;13.422;2023-02-13T03:09:55;12;;;6.2;;
78075;SDS011;67714;52.546;13.422;2023-02-13T03:11:58;10.3;;;5.8;;
78075;SDS011;67714;52.546;13.422;2023-02-13T03:14:00;11.2;;;6.5;;
78075;SDS011;67714;52.546;13.422;2023-02-13T03:16:04;10.7;;;6.3;;
78075;SDS011;67714;52.546;13.422;2023-02-13T03:18:07;10.3;;;5.9;;
78075;SDS011;67714;52.546;13.422;2023-02-13T03:20:13;10.7;;;6.3;;
78075;SDS011;67714;52.546;13.422;2023-02-13T03:22:21;9.8;;;6.4;;
78075;SDS011;67714;52.546;13.422;2023-02-13T03:24:31;10.5;;;6.4;;
78075;SDS011;67714;52.546;13.422;2023-02-13T03:26:39;10.4;;;6.2;;
78075;SDS011;67714;52.546;13.422;2023-02-13T03:28:49;11.5;;;6.5;;
78075;SDS011;67714;52.546;13.422;2023-02-13T03:30:58;10.6;;;6.2;;
78075;SDS011;67714;52.546;13.422;2023-02-13T03:33:10;9.6;;;5.8;;
78075;SDS011;67714;52.546;13.422;2023-02-13T03:35:21;8.9;;;5.7;;
78075;SDS011;67714;52.546;13.422;2023-02-13T03:37:29;12.2;;;6.5;;
78075;SDS011;67714;52.546;13.422;2023-02-13T03:39:39;9.8;;;6;;
78075;SDS011;67714;52.546;13.422;2023-02-13T03:41:47;10.7;;;6.2;;
78075;SDS011;67714;52.546;13.422;2023-02-13T03:43:54;10.5;;;6.5;;
78075;SDS011;67714;52.546;13.422;2023-02-13T03:46:02;10.4;;;6.2;;
78075;SDS011;67714;52.546;13.422;2023-02-13T03:48:04;9.5;;;5.8;;
78075;SDS011;67714;52.546;13.422;2023-02-13T03:50:10;11.1;;;6.8;;
78075;SDS011;67714;52.546;13.422;2023-02-13T03:52:15;10.7;;;6.2;;
78075;SDS011;67714;52.546;13.422;2023-02-13T03:54:23;11.5;;;6.6;;
78075;SDS011;67714;52.546;13.422;2023-02-13T03:56:27;11;;;6.6;;
78075;SDS011;67714;52.546;13.422;2023-02-13T03:58:32;11.7;;;7.1;;
78075;SDS011;67714;52.546;13.422;2023-02-13T04:00:37;10.5;;;6.7;;
78075;SDS011;67714;52.546;13.422;2023-02-13T04:02:42;11.2;;;7.1;;
78075;SDS011;67714;52.546;13.422;2023-02-13T04:04:51;10.9;;;6.9;;
78075;SDS011;67714;52.546;13.422;2023-02-13T04:06:59;11.1;;;6.8;;
78075;SDS011;67714;52.546;13.422;2023-02-13T04:09:03;12.5;;;7.5;;
78075;SDS011;67714;52.546;13.422;2023-02-13T04:11:06;12.2;;;7.7;;
78075;SDS011;67714;52.546;13.422;2023-02-13T04:13:12;11.3;;;7.3;;
78075;SDS011;67714;52.546;13.422;2023-02-13T04:15:17;11.5;;;7.3;;
78075;SDS011;67714;52.546;13.422;2023-02-13T04:17:21;11.2;;;7.2;;
78075;SDS011;67714;52.546;13.422;2023-02-13T04:19:27;12.3;;;7.4;;
78075;SDS011;67714;52.546;13.422;2023-02-13T04:21:31;11.6;;;7.5;;
78075;SDS011;67714;52.546;13.422;2023-02-13T04:23:33;12.2;;;7.3;;
78075;SDS011;67714;52.546;13.422;2023-02-13T04:25:35;11.4;;;7.7;;
78075;SDS011;67714;52.546;13.422;2023-02-13T04:27:38;11.7;;;7.8;;
78075;SDS011;67714;52.546;13.422;2023-02-13T04:29:40;11.3;;;7.8;;
78075;SDS011;67714;52.546;13.422;2023-02-13T04:31:41;11.7;;;7.5;;
78075;SDS011;67714;52.546;13.422;2023-02-13T04:33:42;12.5;;;7.7;;
78075;SDS011;67714;52.546;13.422;2023-02-13T04:35:44;11.2;;;8.1;;
78075;SDS011;67714;52.546;13.422;2023-02-13T04:37:45;12.2;;;8;;
78075;SDS011;67714;52.546;13.422;2023-02-13T04:39:46;12.2;;;8.3;;
78075;SDS011;67714;52.546;13.422;2023-02-13T04:41:48;12.7;;;8.4;;
78075;SDS011;67714;52.546;13.422;2023-02-13T04:43:49;13.5;;;9;;
78075;SDS011;67714;52.546;13.422;2023-02-13T04:45:51;13.8;;;9.4;;
78075;SDS011;67714;52.546;13.422;2023-02-13T04:47:53;13.4;;;9.4;;
78075;SDS011;67714;52.546;13.422;2023-02-13T04:49:57;15.1;;;9.8;;
78075;SDS011;67714;52.546;13.422;2023-02-13T04:51:58;15.3;;;9.8;;
78075;SDS011;67714;52.546;13.422;2023-02-13T04:54:00;16.5;;;10.7;;
78075;SDS011;67714;52.546;13.422;2023-02-13T04:56:01;17.4;;;11.2;;
78075;SDS011;67714;52.546;13.422;2023-02-13T04:58:03;15.9;;;10.5;;
78075;SDS011;67714;52.546;13.422;2023-02-13T05:00:05;16.5;;;10.8;;
78075;SDS011;67714;52.546;13.422;2023-02-13T05:02:07;19.1;;;11.4;;
78075;SDS011;67714;52.546;13.422;2023-02-13T05:04:08;17.5;;;11.4;;
78075;SDS011;67714;52.546;13.422;2023-02-13T05:06:09;16.3;;;11.3;;
78075;SDS011;67714;52.546;13.422;2023-02-13T05:08:11;17.9;;;12;;
78075;SDS011;67714;52.546;13.422;2023-02-13T05:10:12;19.1;;;11.9;;
78075;SDS011;67714;52.546;13.422;2023-02-13T05:12:14;18.4;;;12.1;;
78075;SDS011;67714;52.546;13.422;2023-02-13T05:14:15;19.1;;;12.2;;
78075;SDS011;67714;52.546;13.422;2023-02-13T05:16:17;15.9;;;11;;
78075;SDS011;67714;52.546;13.422;2023-02-13T05:18:18;17.6;;;12;;
78075;SDS011;67714;52.546;13.422;2023-02-13T05:20:20;17.6;;;12.2;;
78075;SDS011;67714;52.546;13.422;2023-02-13T05:22:21;17.6;;;12.1;;
78075;SDS011;67714;52.546;13.422;2023-02-13T05:24:22;17;;;11.4;;
78075;SDS011;67714;52.546;13.422;2023-02-13T05:26:24;16.9;;;11.3;;
78075;SDS011;67714;52.546;13.422;2023-02-13T05:28:25;15.8;;;9.7;;
78075;SDS011;67714;52.546;13.422;2023-02-13T05:30:27;16.3;;;10.4;;
78075;SDS011;67714;52.546;13.422;2023-02-13T05:32:28;15.6;;;10.8;;
78075;SDS011;67714;52.546;13.422;2023-02-13T05:34:30;16.7;;;10.1;;
78075;SDS011;67714;52.546;13.422;2023-02-13T05:36:31;14.7;;;10.1;;
78075;SDS011;67714;52.546;13.422;2023-02-13T05:38:32;16.8;;;10.8;;
78075;SDS011;67714;52.546;13.422;2023-02-13T05:40:33;15.2;;;9.7;;
78075;SDS011;67714;52.546;13.422;2023-02-13T05:42:35;15.1;;;9.5;;
78075;SDS011;67714;52.546;13.422;2023-02-13T05:44:36;15.7;;;9.9;;
78075;SDS011;67714;52.546;13.422;2023-02-13T05:46:38;15.3;;;9.9;;
78075;SDS011;67714;52.546;13.422;2023-02-13T05:48:40;14.6;;;10;;
78075;SDS011;67714;52.546;13.422;2023-02-13T05:50:41;14.2;;;9.4;;
78075;SDS011;67714;52.546;13.422;2023-02-13T05:52:43;13.6;;;9.5;;
78075;SDS011;67714;52.546;13.422;2023-02-13T05:54:44;13.7;;;8.6;;
78075;SDS011;67714;52.546;13.422;2023-02-13T05:56:46;15.7;;;9.4;;
78075;SDS011;67714;52.546;13.422;2023-02-13T05:58:49;14.7;;;9.9;;
78075;SDS011;67714;52.546;13.422;2023-02-13T06:00:53;15;;;9.6;;
78075;SDS011;67714;52.546;13.422;2023-02-13T06:02:55;13.2;;;8.6;;
78075;SDS011;67714;52.546;13.422;2023-02-13T06:04:56;13.6;;;9.3;;
78075;SDS011;67714;52.546;13.422;2023-02-13T06:06:58;14.3;;;8.9;;
78075;SDS011;67714;52.546;13.422;2023-02-13T06:09:00;13.3;;;7.8;;
78075;SDS011;67714;52.546;13.422;2023-02-13T06:11:02;12.6;;;8.4;;
78075;SDS011;67714;52.546;13.422;2023-02-13T06:13:05;11.6;;;7.6;;
78075;SDS011;67714;52.546;13.422;2023-02-13T06:15:07;13.9;;;8;;
78075;SDS011;67714;52.546;13.422;2023-02-13T06:17:08;12.4;;;8.2;;
78075;SDS011;67714;52.546;13.422;2023-02-13T06:19:09;12.3;;;7.8;;
78075;SDS011;67714;52.546;13.422;2023-02-13T06:21:11;12.7;;;8.2;;
78075;SDS011;67714;52.546;13.422;2023-02-13T06:23:12;12.1;;;8.2;;
78075;SDS011;67714;52.546;13.422;2023-02-13T06:25:14;12.9;;;8.3;;
78075;SDS011;67714;52.546;13.422;2023-02-13T06:27:15;12.6;;;8;;
78075;SDS011;67714;52.546;13.422;2023-02-13T06:29:17;11.9;;;7.6;;
78075;SDS011;67714;52.546;13.422;2023-02-13T06:31:19;11.5;;;8.1;;
78075;SDS011;67714;52.546;13.422;2023-02-13T06:33:20;12.8;;;8.1;;
78075;SDS011;67714;52.546;13.422;2023-02-13T06:35:21;12.6;;;8.8;;
78075;SDS011;67714;52.546;13.422;2023-02-13T06:37:24;10.8;;;7.9;;
78075;SDS011;67714;52.546;13.422;2023-02-13T06:39:25;12.3;;;7.9;;
78075;SDS011;67714;52.546;13.422;2023-02-13T06:41:26;11.9;;;8;;
78075;SDS011;67714;52.546;13.422;2023-02-13T06:43:28;13.1;;;8;;
78075;SDS011;67714;52.546;13.422;2023-02-13T06:45:29;12;;;7.8;;
78075;SDS011;67714;52.546;13.422;2023-02-13T06:47:31;12.3;;;8.2;;
78075;SDS011;67714;52.546;13.422;2023-02-13T06:49:32;12;;;8;;
78075;SDS011;67714;52.546;13.422;2023-02-13T06:51:33;13.3;;;8.2;;
78075;SDS011;67714;52.546;13.422;2023-02-13T06:53:35;11.4;;;7.7;;
78075;SDS011;67714;52.546;13.422;2023-02-13T06:55:36;11.8;;;7.9;;
78075;SDS011;67714;52.546;13.422;2023-02-13T06:57:38;12.4;;;8;;
78075;SDS011;67714;52.546;13.422;2023-02-13T06:59:39;15.1;;;7.9;;
78075;SDS011;67714;52.546;13.422;2023-02-13T07:01:41;12.7;;;7.7;;
78075;SDS011;67714;52.546;13.422;2023-02-13T07:03:42;12.7;;;7.9;;
78075;SDS011;67714;52.546;13.422;2023-02-13T07:05:44;13.3;;;8.4;;
78075;SDS011;67714;52.546;13.422;2023-02-13T07:07:45;13.7;;;8.5;;
78075;SDS011;67714;52.546;13.422;2023-02-13T07:09:47;12.9;;;8.7;;
78075;SDS011;67714;52.546;13.422;2023-02-13T07:11:48;13.1;;;8.2;;
78075;SDS011;67714;52.546;13.422;2023-02-13T07:13:49;14.5;;;8.9;;
78075;SDS011;67714;52.546;13.422;2023-02-13T07:15:52;11.9;;;8.1;;
78075;SDS011;67714;52.546;13.422;2023-02-13T07:17:54;14.4;;;9.1;;
78075;SDS011;67714;52.546;13.422;2023-02-13T07:19:56;12.6;;;8.1;;
78075;SDS011;67714;52.546;13.422;2023-02-13T07:21:57;14.7;;;8;;
78075;SDS011;67714;52.546;13.422;2023-02-13T07:23:59;12.3;;;8.2;;
78075;SDS011;67714;52.546;13.422;2023-02-13T07:26:00;14.1;;;8.5;;
78075;SDS011;67714;52.546;13.422;2023-02-13T07:28:02;10.7;;;7.4;;
78075;SDS011;67714;52.546;13.422;2023-02-13T07:30:09;14.5;;;8.5;;
78075;SDS011;67714;52.546;13.422;2023-02-13T07:32:11;13;;;7.4;;
78075;SDS011;67714;52.546;13.422;2023-02-13T07:34:12;11.3;;;7.7;;
78075;SDS011;67714;52.546;13.422;2023-02-13T07:36:14;12.1;;;7.9;;
78075;SDS011;67714;52.546;13.422;2023-02-13T07:38:16;11.9;;;8.3;;
78075;SDS011;67714;52.546;13.422;2023-02-13T07:40:18;11.7;;;7.8;;
78075;SDS011;67714;52.546;13.422;2023-02-13T07:42:19;11.9;;;7.7;;
78075;SDS011;67714;52.546;13.422;2023-02-13T07:44:21;13.3;;;8.4;;
78075;SDS011;67714;52.546;13.422;2023-02-13T07:46:24;11.9;;;8;;
78075;SDS011;67714;52.546;13.422;2023-02-13T07:48:25;13.2;;;8.8;;
78075;SDS011;67714;52.546;13.422;2023-02-13T07:50:27;13.1;;;8.3;;
78075;SDS011;67714;52.546;13.422;2023-02-13T07:52:29;12.4;;;7.6;;
78075;SDS011;67714;52.546;13.422;2023-02-13T07:54:30;12.5;;;7.8;;
78075;SDS011;67714;52.546;13.422;2023-02-13T07:56:32;12.1;;;7.4;;
78075;SDS011;67714;52.546;13.422;2023-02-13T07:58:34;11;;;7.1;;
78075;SDS011;67714;52.546;13.422;2023-02-13T08:00:35;11.2;;;7.9;;
78075;SDS011;67714;52.546;13.422;2023-02-13T08:02:37;20.4;;;13.5;;
78075;SDS011;67714;52.546;13.422;2023-02-13T08:04:39;12.5;;;7.6;;
78075;SDS011;67714;52.546;13.422;2023-02-13T08:06:40;10.5;;;7.1;;
78075;SDS011;67714;52.546;13.422;2023-02-13T08:08:43;12.1;;;7.4;;
78075;SDS011;67714;52.546;13.422;2023-02-13T08:10:44;11.1;;;7.4;;
78075;SDS011;67714;52.546;13.422;2023-02-13T08:12:46;12.1;;;7.6;;
78075;SDS011;67714;52.546;13.422;2023-02-13T08:14:51;11.2;;;7.4;;
78075;SDS011;67714;52.546;13.422;2023-02-13T08:16:53;10.1;;;7;;
78075;SDS011;67714;52.546;13.422;2023-02-13T08:18:55;12.5;;;7.7;;
78075;SDS011;67714;52.546;13.422;2023-02-13T08:20:58;10.6;;;7.3;;
78075;SDS011;67714;52.546;13.422;2023-02-13T08:23:01;12;;;7.5;;
78075;SDS011;67714;52.546;13.422;2023-02-13T08:25:03;12.8;;;8;;
78075;SDS011;67714;52.546;13.422;2023-02-13T08:27:06;11.6;;;7.3;;
78075;SDS011;67714;52.546;13.422;2023-02-13T08:29:11;11;;;7.1;;
78075;SDS011;67714;52.546;13.422;2023-02-13T08:31:13;11.3;;;7.4;;
78075;SDS011;67714;52.546;13.422;2023-02-13T08:33:14;12.1;;;7.6;;
78075;SDS011;67714;52.546;13.422;2023-02-13T08:35:16;12.8;;;8;;
78075;SDS011;67714;52.546;13.422;2023-02-13T08:37:17;12.3;;;7.4;;
78075;SDS011;67714;52.546;13.422;2023-02-13T08:39:18;12.5;;;8;;
78075;SDS011;67714;52.546;13.422;2023-02-13T08:41:20;11.6;;;7.4;;
78075;SDS011;67714;52.546;13.422;2023-02-13T08:43:22;12.9;;;7.6;;
78075;SDS011;67714;52.546;13.422;2023-02-13T08:45:25;12.5;;;8.7;;
78075;SDS011;67714;52.546;13.422;2023-02-13T08:47:28;15;;;10.3;;
78075;SDS011;67714;52.546;13.422;2023-02-13T08:49:29;14;;;9;;
78075;SDS011;67714;52.546;13.422;2023-02-13T08:51:31;12.4;;;8.4;;
78075;SDS011;67714;52.546;13.422;2023-02-13T08:53:32;11.1;;;7.5;;
78075;SDS011;67714;52.546;13.422;2023-02-13T08:55:34;10.7;;;7.4;;
78075;SDS011;67714;52.546;13.422;2023-02-13T08:57:35;10.7;;;7.5;;
78075;SDS011;67714;52.546;13.422;2023-02-13T08:59:37;10.9;;;7.5;;
78075;SDS011;67714;52.546;13.422;2023-02-13T09:01:38;10.3;;;7.1;;
78075;SDS011;67714;52.546;13.422;2023-02-13T09:03:40;12.4;;;7.6;;
78075;SDS011;67714;52.546;13.422;2023-02-13T09:05:41;12.9;;;7.6;;
78075;SDS011;67714;52.546;13.422;2023-02-13T09:07:44;15.3;;;7.2;;
78075;SDS011;67714;52.546;13.422;2023-02-13T09:09:45;13.7;;;7.7;;
78075;SDS011;67714;52.546;13.422;2023-02-13T09:11:47;13;;;8;;
78075;SDS011;67714;52.546;13.422;2023-02-13T09:13:48;12.1;;;7.6;;
78075;SDS011;67714;52.546;13.422;2023-02-13T09:15:53;14.4;;;8.4;;
78075;SDS011;67714;52.546;13.422;2023-02-13T09:17:54;14;;;8.5;;
78075;SDS011;67714;52.546;13.422;2023-02-13T09:19:56;13.4;;;8.5;;
78075;SDS011;67714;52.546;13.422;2023-02-13T09:21:58;13.4;;;8.6;;
78075;SDS011;67714;52.546;13.422;2023-02-13T09:23:59;13.5;;;8.8;;
78075;SDS011;67714;52.546;13.422;2023-02-13T09:26:01;12.9;;;8.6;;
78075;SDS011;67714;52.546;13.422;2023-02-13T09:28:03;14.5;;;8.3;;
78075;SDS011;67714;52.546;13.422;2023-02-13T09:30:08;14.2;;;8.5;;
78075;SDS011;67714;52.546;13.422;2023-02-13T09:32:10;14.3;;;8.9;;
78075;SDS011;67714;52.546;13.422;2023-02-13T09:34:11;13.3;;;8.5;;
78075;SDS011;67714;52.546;13.422;2023-02-13T09:36:14;12.7;;;8;;
78075;SDS011;67714;52.546;13.422;2023-02-13T09:38:17;14.1;;;8.4;;
78075;SDS011;67714;52.546;13.422;2023-02-13T09:40:20;14.9;;;9;;
78075;SDS011;67714;52.546;13.422;2023-02-13T09:42:26;13.8;;;9.1;;
78075;SDS011;67714;52.546;13.422;2023-02-13T09:44:33;14.4;;;9.2;;
78075;SDS011;67714;52.546;13.422;2023-02-13T09:46:37;13.8;;;8.5;;
78075;SDS011;67714;52.546;13.422;2023-02-13T09:48:42;13.5;;;8.7;;
78075;SDS011;67714;52.546;13.422;2023-02-13T09:50:47;14;;;9.1;;
78075;SDS011;67714;52.546;13.422;2023-02-13T09:52:49;13.9;;;8.8;;
78075;SDS011;67714;52.546;13.422;2023-02-13T09:54:53;14.4;;;9.2;;
78075;SDS011;67714;52.546;13.422;2023-02-13T09:56:55;14.4;;;8.7;;
78075;SDS011;67714;52.546;13.422;2023-02-13T09:59:02;14.5;;;9.1;;
78075;SDS011;67714;52.546;13.422;2023-02-13T10:01:12;13.4;;;8.4;;
78075;SDS011;67714;52.546;13.422;2023-02-13T10:03:20;15.4;;;9.2;;
78075;SDS011;67714;52.546;13.422;2023-02-13T10:05:36;13.5;;;8.9;;
78075;SDS011;67714;52.546;13.422;2023-02-13T10:07:44;13.9;;;8.7;;
78075;SDS011;67714;52.546;13.422;2023-02-13T10:09:54;14.2;;;9.2;;
78075;SDS011;67714;52.546;13.422;2023-02-13T10:12:07;14.5;;;8.9;;
78075;SDS011;67714;52.546;13.422;2023-02-13T10:14:15;14.4;;;9.2;;
78075;SDS011;67714;52.546;13.422;2023-02-13T10:16:20;15.8;;;9.7;;
78075;SDS011;67714;52.546;13.422;2023-02-13T10:18:26;16.1;;;9.9;;
78075;SDS011;67714;52.546;13.422;2023-02-13T10:20:31;15.9;;;10.5;;
78075;SDS011;67714;52.546;13.422;2023-02-13T10:22:39;16.8;;;10.2;;
78075;SDS011;67714;52.546;13.422;2023-02-13T10:24:46;17.6;;;10.3;;
78075;SDS011;67714;52.546;13.422;2023-02-13T10:26:50;17.1;;;10.9;;
78075;SDS011;67714;52.546;13.422;2023-02-13T10:28:54;17.9;;;10.5;;
78075;SDS011;67714;52.546;13.422;2023-02-13T10:31:02;16.2;;;10.1;;
78075;SDS011;67714;52.546;13.422;2023-02-13T10:33:24;16.7;;;10.7;;
78075;SDS011;67714;52.546;13.422;2023-02-13T10:35:28;17.2;;;11;;
78075;SDS011;67714;52.546;13.422;2023-02-13T10:37:31;16.8;;;10.1;;
78075;SDS011;67714;52.546;13.422;2023-02-13T10:39:32;17;;;11.1;;
78075;SDS011;67714;52.546;13.422;2023-02-13T10:41:37;18.4;;;11.2;;
78075;SDS011;67714;52.546;13.422;2023-02-13T10:43:50;18.8;;;10.6;;
78075;SDS011;67714;52.546;13.422;2023-02-13T10:46:05;17;;;10.9;;
78075;SDS011;67714;52.546;13.422;2023-02-13T10:48:16;15.2;;;9.5;;
78075;SDS011;67714;52.546;13.422;2023-02-13T10:50:29;15.4;;;10.2;;
78075;SDS011;67714;52.546;13.422;2023-02-13T10:52:38;16.7;;;10.2;;
78075;SDS011;67714;52.546;13.422;2023-02-13T10:54:50;15.6;;;10.3;;
78075;SDS011;67714;52.546;13.422;2023-02-13T10:56:59;15.8;;;9.8;;
78075;SDS011;67714;52.546;13.422;2023-02-13T10:59:08;14.4;;;9.5;;
78075;SDS011;67714;52.546;13.422;2023-02-13T11:01:15;16.9;;;11.1;;
78075;SDS011;67714;52.546;13.422;2023-02-13T11:03:23;15.9;;;10.2;;
78075;SDS011;67714;52.546;13.422;2023-02-13T11:05:29;17.2;;;10.4;;
78075;SDS011;67714;52.546;13.422;2023-02-13T11:07:32;17.5;;;10.3;;
78075;SDS011;67714;52.546;13.422;2023-02-13T11:09:36;15.7;;;10.1;;
78075;SDS011;67714;52.546;13.422;2023-02-13T11:11:41;15.2;;;9.6;;
78075;SDS011;67714;52.546;13.422;2023-02-13T11:13:44;16.2;;;10.5;;
78075;SDS011;67714;52.546;13.422;2023-02-13T11:16:01;15.5;;;10.4;;
78075;SDS011;67714;52.546;13.422;2023-02-13T11:18:11;16;;;11.2;;
78075;SDS011;67714;52.546;13.422;2023-02-13T11:20:25;17;;;10.5;;
78075;SDS011;67714;52.546;13.422;2023-02-13T11:22:30;17.1;;;11.2;;
78075;SDS011;67714;52.546;13.422;2023-02-13T11:24:32;16.6;;;10.7;;
78075;SDS011;67714;52.546;13.422;2023-02-13T11:41:50;17.2;;;11.2;;
78075;SDS011;67714;52.546;13.422;2023-02-13T11:43:53;17.5;;;11.4;;
78075;SDS011;67714;52.546;13.422;2023-02-13T11:46:00;18.7;;;12.3;;
78075;SDS011;67714;52.546;13.422;2023-02-13T11:48:07;17.8;;;11.9;;
78075;SDS011;67714;52.546;13.422;2023-02-13T11:50:19;19;;;12.5;;
78075;SDS011;67714;52.546;13.422;2023-02-13T11:52:24;19.8;;;12.5;;
78075;SDS011;67714;52.546;13.422;2023-02-13T11:54:29;20.1;;;13.3;;
78075;SDS011;67714;52.546;13.422;2023-02-13T11:56:47;18.9;;;12.5;;
78075;SDS011;67714;52.546;13.422;2023-02-13T11:58:57;18.4;;;12.5;;
78075;SDS011;67714;52.546;13.422;2023-02-13T12:01:20;19.3;;;13.3;;
78075;SDS011;67714;52.546;13.422;2023-02-13T12:03:27;19;;;13;;
78075;SDS011;67714;52.546;13.422;2023-02-13T12:05:29;19.9;;;13.2;;
78075;SDS011;67714;52.546;13.422;2023-02-13T12:07:31;17.9;;;12.7;;
78075;SDS011;67714;52.546;13.422;2023-02-13T12:09:33;19.9;;;12.9;;
78075;SDS011;67714;52.546;13.422;2023-02-13T12:11:39;19.4;;;12.8;;
78075;SDS011;67714;52.546;13.422;2023-02-13T12:13:45;21;;;14.3;;
78075;SDS011;67714;52.546;13.422;2023-02-13T12:15:57;18.8;;;12.8;;
78075;SDS011;67714;52.546;13.422;2023-02-13T12:18:02;20.2;;;13.1;;
78075;SDS011;67714;52.546;13.422;2023-02-13T12:20:10;19;;;13.2;;
78075;SDS011;67714;52.546;13.422;2023-02-13T12:22:18;21.8;;;14.6;;
78075;SDS011;67714;52.546;13.422;2023-02-13T12:24:30;21.2;;;14.3;;
78075;SDS011;67714;52.546;13.422;2023-02-13T12:26:42;21.1;;;14.4;;
78075;SDS011;67714;52.546;13.422;2023-02-13T12:28:49;20.1;;;13.5;;
78075;SDS011;67714;52.546;13.422;2023-02-13T12:32:01;23.2;;;13.9;;
78075;SDS011;67714;52.546;13.422;2023-02-13T12:34:08;22.6;;;15;;
78075;SDS011;67714;52.546;13.422;2023-02-13T12:36:14;21.3;;;14;;
78075;SDS011;67714;52.546;13.422;2023-02-13T12:38:25;21;;;14.3;;
78075;SDS011;67714;52.546;13.422;2023-02-13T12:40:35;24.1;;;14.9;;
78075;SDS011;67714;52.546;13.422;2023-02-13T12:42:43;20.2;;;13.7;;
78075;SDS011;67714;52.546;13.422;2023-02-13T12:44:55;21.6;;;14.2;;
78075;SDS011;67714;52.546;13.422;2023-02-13T12:47:04;20.3;;;13.1;;